地図

経路データ

SID SEASON NUMBER BASIN SUBBASIN NAME ISO_TIME NATURE LAT LON WMO_WIND WMO_PRES WMO_AGENCY TRACK_TYPE DIST2LAND LANDFALL IFLAG USA_AGENCY USA_ATCF_ID USA_LAT USA_LON USA_RECORD USA_STATUS USA_WIND USA_PRES USA_SSHS USA_R34_NE USA_R34_SE USA_R34_SW USA_R34_NW USA_R50_NE USA_R50_SE USA_R50_SW USA_R50_NW USA_R64_NE USA_R64_SE USA_R64_SW USA_R64_NW USA_POCI USA_ROCI USA_RMW USA_EYE TOKYO_LAT TOKYO_LON TOKYO_GRADE TOKYO_WIND TOKYO_PRES TOKYO_R50_DIR TOKYO_R50_LONG TOKYO_R50_SHORT TOKYO_R30_DIR TOKYO_R30_LONG TOKYO_R30_SHORT TOKYO_LAND CMA_LAT CMA_LON CMA_CAT CMA_WIND CMA_PRES HKO_LAT HKO_LON HKO_CAT HKO_WIND HKO_PRES NEWDELHI_LAT NEWDELHI_LON NEWDELHI_GRADE NEWDELHI_WIND NEWDELHI_PRES NEWDELHI_CI NEWDELHI_DP NEWDELHI_POCI REUNION_LAT REUNION_LON REUNION_TYPE REUNION_WIND REUNION_PRES REUNION_TNUM REUNION_CI REUNION_RMW REUNION_R34_NE REUNION_R34_SE REUNION_R34_SW REUNION_R34_NW REUNION_R50_NE REUNION_R50_SE REUNION_R50_SW REUNION_R50_NW REUNION_R64_NE REUNION_R64_SE REUNION_R64_SW REUNION_R64_NW BOM_LAT BOM_LON BOM_TYPE BOM_WIND BOM_PRES BOM_TNUM BOM_CI BOM_RMW BOM_R34_NE BOM_R34_SE BOM_R34_SW BOM_R34_NW BOM_R50_NE BOM_R50_SE BOM_R50_SW BOM_R50_NW BOM_R64_NE BOM_R64_SE BOM_R64_SW BOM_R64_NW BOM_ROCI BOM_POCI BOM_EYE BOM_POS_METHOD BOM_PRES_METHOD NADI_LAT NADI_LON NADI_CAT NADI_WIND NADI_PRES WELLINGTON_LAT WELLINGTON_LON WELLINGTON_WIND WELLINGTON_PRES DS824_LAT DS824_LON DS824_STAGE DS824_WIND DS824_PRES TD9636_LAT TD9636_LON TD9636_STAGE TD9636_WIND TD9636_PRES TD9635_LAT TD9635_LON TD9635_WIND TD9635_PRES TD9635_ROCI NEUMANN_LAT NEUMANN_LON NEUMANN_CLASS NEUMANN_WIND NEUMANN_PRES MLC_LAT MLC_LON MLC_CLASS MLC_WIND MLC_PRES USA_GUST BOM_GUST BOM_GUST_PER REUNION_GUST REUNION_GUST_PER USA_SEAHGT USA_SEARAD_NE USA_SEARAD_SE USA_SEARAD_SW USA_SEARAD_NW STORM_SPEED STORM_DIR
1941227N19092 1941 45 NI BB NOT_NAMED 1941-08-15 00:00:00 TS 19.1000 92.3000 main 128 109 _________O____ -1 19.1000 92.3000 TC 30 5 8
1941227N19092 1941 45 NI BB NOT_NAMED 1941-08-15 03:00:00 TS 19.3350 92.3466 main 109 76 _________PO___ -1 19.4525 92.3699 TC 31 19.1000 92.3000 1 6 7
1941227N19092 1941 45 NI BB NOT_NAMED 1941-08-15 06:00:00 TS 19.6557 92.3674 main 68 45 _________OP___ -1 19.8000 92.4000 TC 32 19.4392 92.3185 1 7 2
1941227N19092 1941 45 NI BB NOT_NAMED 1941-08-15 09:00:00 TS 19.9883 92.3499 main 53 38 _________PP___ -1 20.1425 92.3651 TC 33 19.7828 92.3297 1 7 355
1941227N19092 1941 45 NI BB NOT_NAMED 1941-08-15 12:00:00 TS 20.3175 92.3130 main 38 10 _________OP___ -1 20.5000 92.3000 TC 34 20.1349 92.3261 1 7 356
1941227N19092 1941 45 NI BB NOT_NAMED 1941-08-15 15:00:00 TS 20.7075 92.2899 main 10 0 _________PO___ -1 20.9149 92.2798 TC 36 20.5000 92.3000 2 8 353
1941227N19092 1941 45 NI BB NOT_NAMED 1941-08-15 18:00:00 TS 21.0882 92.2210 main 0 0 _________OP___ -1 21.3000 92.2000 TC 39 20.8764 92.2421 2 7 344
1941227N19092 1941 45 NI BB NOT_NAMED 1941-08-15 21:00:00 TS 21.4208 92.0727 main 0 0 _________PP___ -1 21.6024 92.0101 TC 42 21.2392 92.1353 2 7 328
1941227N19092 1941 45 NI BB NOT_NAMED 1941-08-16 00:00:00 TS 21.6787 91.8305 main 15 15 _________OP___ -1 21.8000 91.7000 TC 45 21.5575 91.9609 2 7 308
1941227N19092 1941 45 NI BB NOT_NAMED 1941-08-16 03:00:00 TS 21.8400 91.4899 main 41 41 _________PO___ -1 21.8801 91.2798 TC 45 21.8000 91.7000 3 8 289
1941227N19092 1941 45 NI BB NOT_NAMED 1941-08-16 06:00:00 TS 21.9169 91.0639 main 45 0 _________OP___ -1 21.9000 90.8000 TC 45 21.9337 91.3278 3 8 279
1941227N19092 1941 45 NI BB NOT_NAMED 1941-08-16 09:00:00 TS 21.9741 90.6085 main 0 0 _________PP___ -1 21.9574 90.3426 TC 45 21.9909 90.8744 3 9 276
1941227N19092 1941 45 NI BB NOT_NAMED 1941-08-16 12:00:00 TS 22.0012 90.1420 main 0 0 _________OP___ -1 22.0000 89.9000 TC 45 22.0024 90.3839 3 8 272
1941227N19092 1941 45 NI BB NOT_NAMED 1941-08-16 15:00:00 TS 21.9999 89.6962 main 0 0 _________PO___ -1 21.9998 89.4924 TC 41 22.0000 89.9000 3 8 270
1941227N19092 1941 45 NI BB NOT_NAMED 1941-08-16 18:00:00 TS 21.9993 89.3065 main 0 0 _________OP___ -1 22.0000 89.1000 TC 37 21.9987 89.5130 3 7 271
1941227N19092 1941 45 NI BB NOT_NAMED 1941-08-16 21:00:00 TS 22.0078 88.9328 main 0 0 _________PP___ -1 22.0196 88.7297 TC 33 21.9960 89.1358 3 7 275
1941227N19092 1941 45 NI BB NOT_NAMED 1941-08-17 00:00:00 TS 22.0602 88.5204 main 0 0 _________OP___ -1 22.1000 88.3000 TC 30 22.0204 88.7408 3 9 282
1941227N19092 1941 45 NI BB NOT_NAMED 1941-08-17 03:00:00 TS 22.1851 88.0113 main 0 0 _________PO___ -1 22.2702 87.7226 TC 30 22.1000 88.3000 1 11 288
1941227N19092 1941 45 NI BB NOT_NAMED 1941-08-17 06:00:00 TS 22.3841 87.4280 main 0 0 _________OP___ -1 22.5000 87.1000 TC 30 22.2682 87.7559 1 12 292
1941227N19092 1941 45 NI BB NOT_NAMED 1941-08-17 09:00:00 TS 22.6167 86.8468 main 0 0 _________PP___ -1 22.7424 86.5274 TC 30 22.4910 87.1662 1 12 295
1941227N19092 1941 45 NI BB NOT_NAMED 1941-08-17 12:00:00 TS 22.8716 86.2841 main 0 0 _________OP___ -1 23.0000 86.0000 TC 30 22.7431 86.5683 1 11 297
1941227N19092 1941 45 NI BB NOT_NAMED 1941-08-17 15:00:00 TS 23.1286 85.7674 main 0 0 _________PO___ -1 23.2572 85.5348 TC 30 23.0000 86.0000 1 10 299
1941227N19092 1941 45 NI BB NOT_NAMED 1941-08-17 18:00:00 TS 23.3720 85.3150 main 0 0 _________OP___ -1 23.5000 85.1000 TC 30 23.2440 85.5300 1 9 300
1941227N19092 1941 45 NI BB NOT_NAMED 1941-08-17 21:00:00 TS 23.6002 84.8785 main 0 0 _________PP___ -1 23.7147 84.6648 TC 30 23.4857 85.0921 1 9 298
1941227N19092 1941 45 NI BB NOT_NAMED 1941-08-18 00:00:00 TS 23.8048 84.4291 main 0 0 _________OP___ -1 23.9000 84.2000 TC 30 23.7096 84.6582 1 9 294
1941227N19092 1941 45 NI BB NOT_NAMED 1941-08-18 03:00:00 TS 23.9862 83.9325 main 0 0 _________PO___ -1 24.0725 83.6650 TC 30 23.9000 84.2000 1 10 289
1941227N19092 1941 45 NI BB NOT_NAMED 1941-08-18 06:00:00 TS 24.1280 83.3913 main 0 0 _________OP___ -1 24.2000 83.1000 TC 30 24.0560 83.6826 1 10 283
1941227N19092 1941 45 NI BB NOT_NAMED 1941-08-18 09:00:00 TS 24.2234 82.8474 main 0 0 _________PP___ -1 24.2722 82.5574 TC 30 24.1746 83.1374 1 10 278
1941227N19092 1941 45 NI BB NOT_NAMED 1941-08-18 12:00:00 TS 24.2779 82.2867 main 0 0 _________OP___ -1 24.3000 82.0000 TC 30 24.2559 82.5735 1 10 275
1941227N19092 1941 45 NI BB NOT_NAMED 1941-08-18 15:00:00 TS 24.3075 81.7000 main 0 0 _________PO___ -1 24.3149 81.4000 TC 30 24.3000 82.0000 1 11 271
1941227N19092 1941 45 NI BB NOT_NAMED 1941-08-18 18:00:00 TS 24.3058 81.0914 main 0 0 _________OP___ -1 24.3000 80.8000 TC 30 24.3115 81.3827 1 11 268
1941227N19092 1941 45 NI BB NOT_NAMED 1941-08-18 21:00:00 TS 24.2693 80.4857 main 0 0 _________PP___ -1 24.2501 80.2048 TC 30 24.2884 80.7666 1 10 265
1941227N19092 1941 45 NI BB NOT_NAMED 1941-08-19 00:00:00 TS 24.2230 79.9461 main 0 0 _________OP___ -1 24.2000 79.7000 TC 30 24.2460 80.1922 1 9 265
1941227N19092 1941 45 NI BB NOT_NAMED 1941-08-19 03:00:00 TS 24.1998 79.5276 main 0 0 _________PO___ -1 24.1997 79.3551 TC 30 24.2000 79.7000 1 7 267
1941227N19092 1941 45 NI BB NOT_NAMED 1941-08-19 06:00:00 TS 24.1869 79.2134 main 0 0 _________OP___ -1 24.2000 79.1000 TC 30 24.1739 79.3267 1 5 265
1941227N19092 1941 45 NI BB NOT_NAMED 1941-08-19 09:00:00 TS 24.1493 78.9363 main 0 0 _________PP___ -1 24.1500 78.8349 TC 30 24.1487 79.0377 1 5 261
1941227N19092 1941 45 NI BB NOT_NAMED 1941-08-19 12:00:00 TS 24.1121 78.7024 main 0 0 _________OP___ -1 24.1000 78.6000 TC 30 24.1242 78.8048 1 4 263
1941227N19092 1941 45 NI BB NOT_NAMED 1941-08-19 15:00:00 TS 24.1000 78.4963 main 0 0 _________PO___ -1 24.0999 78.3926 TC 30 24.1000 78.6000 1 4 266
1941227N19092 1941 45 NI BB NOT_NAMED 1941-08-19 18:00:00 TS 24.0860 78.3142 main 0 0 _________OP___ -1 24.1000 78.2000 TC 30 24.0755 78.3999 1 3 263
1941227N19092 1941 45 NI BB NOT_NAMED 1941-08-19 21:00:00 TS 24.0554 78.1209 main 0 0 _________PP___ -1 24.0626 78.0024 TC 30 24.0507 78.1999 1 4 259
1941227N19092 1941 45 NI AS NOT_NAMED 1941-08-20 00:00:00 TS 24.0170 77.9333 main 0 0 _________OP___ -1 24.0000 77.8000 TC 30 24.0255 77.9999 1 3 259
1941227N19092 1941 45 NI AS NOT_NAMED 1941-08-20 03:00:00 NR 24.0000 77.8000 main 0 __________O___ -1 TC 24.0000 77.8000 1 2 262

IBTrACS Databaseについて

本データベースは、米国NOAAが公開する1842年以降の世界の熱帯低気圧のベストトラックデータアーカイブInternational Best Track Archive for Climate Stewardship (IBTrACS)を、ウェブで閲覧しやすい形式に変換したものです。

最終更新日:2021-10-19